createdAt,value
2023-01-11T00:02:41.073Z,50.14
2023-01-11T00:05:45.105Z,50.18
2023-01-11T00:08:47.133Z,50.21
2023-01-11T00:11:49.325Z,50.18
2023-01-11T00:14:51.330Z,50.24
2023-01-11T00:17:53.467Z,50.27
2023-01-11T00:20:55.555Z,50.28
2023-01-11T00:23:57.741Z,50.27
2023-01-11T00:26:59.715Z,50.29
2023-01-11T00:30:01.742Z,50.27
2023-01-11T00:33:03.858Z,50.33
2023-01-11T00:36:06.253Z,50.27
2023-01-11T00:39:08.264Z,50.31
2023-01-11T00:42:31.916Z,50.29
2023-01-11T00:45:52.867Z,50.26
2023-01-11T00:48:54.945Z,50.31
2023-01-11T00:51:57.112Z,50.29
2023-01-11T00:54:59.104Z,50.30
2023-01-11T00:58:01.740Z,50.26
2023-01-11T01:01:07.858Z,50.30
2023-01-11T01:04:09.956Z,50.32
2023-01-11T01:07:12.166Z,50.31
2023-01-11T01:10:15.942Z,50.30
2023-01-11T01:13:36.516Z,50.32
2023-01-11T01:16:38.567Z,50.35
2023-01-11T01:19:40.545Z,50.40
2023-01-11T01:22:42.907Z,50.38
2023-01-11T01:25:44.915Z,50.43
2023-01-11T01:28:47.485Z,50.43
2023-01-11T01:31:49.475Z,50.43
2023-01-11T01:34:51.499Z,50.50
2023-01-11T01:37:53.594Z,50.50
2023-01-11T01:40:56.894Z,50.54
2023-01-11T01:44:24.955Z,50.58
2023-01-11T01:47:47.248Z,50.59
2023-01-11T01:50:55.423Z,50.61
2023-01-11T01:53:59.687Z,50.64
2023-01-11T01:57:10.747Z,50.66
2023-01-11T02:00:13.817Z,50.67
2023-01-11T02:03:21.601Z,50.72
2023-01-11T02:06:24.029Z,50.76
2023-01-11T02:09:38.708Z,50.79
2023-01-11T02:12:51.604Z,50.77
2023-01-11T02:16:08.016Z,50.80
2023-01-11T02:19:40.354Z,50.80
2023-01-11T02:23:07.290Z,50.84
2023-01-11T02:26:28.099Z,50.87
2023-01-11T02:29:43.205Z,50.86
2023-01-11T02:33:07.870Z,50.88
2023-01-11T02:36:21.464Z,50.92
2023-01-11T02:39:48.503Z,50.89
2023-01-11T02:43:10.825Z,50.93
2023-01-11T02:46:20.494Z,50.95
2023-01-11T02:49:35.387Z,50.96
2023-01-11T02:52:48.644Z,50.99
2023-01-11T02:55:54.499Z,51.01
2023-01-11T02:58:57.959Z,51.04
2023-01-11T03:02:00.515Z,51.05
2023-01-11T03:05:02.572Z,51.06
2023-01-11T03:08:25.619Z,51.07
2023-01-11T03:12:36.913Z,51.11
2023-01-11T03:16:10.953Z,51.12
2023-01-11T03:19:18.915Z,51.16
2023-01-11T03:22:41.566Z,51.18
2023-01-11T03:26:02.126Z,51.19
2023-01-11T03:29:16.429Z,51.21
2023-01-11T03:32:30.919Z,51.26
2023-01-11T03:35:51.609Z,51.22
2023-01-11T03:39:31.252Z,51.27
2023-01-11T03:42:35.223Z,51.27
2023-01-11T03:46:10.220Z,51.30
2023-01-11T03:49:30.181Z,51.33
2023-01-11T03:52:37.068Z,51.37
2023-01-11T03:55:42.182Z,51.37
2023-01-11T03:58:44.704Z,51.40
2023-01-11T04:01:46.811Z,51.40
2023-01-11T04:04:48.887Z,51.43
2023-01-11T04:07:51.190Z,51.46
2023-01-11T04:10:53.167Z,51.44
2023-01-11T04:13:55.338Z,51.49
2023-01-11T04:16:57.798Z,51.50
2023-01-11T04:19:59.807Z,51.49
2023-01-11T04:23:02.190Z,51.49
2023-01-11T04:26:04.331Z,51.50
2023-01-11T04:29:06.540Z,51.51
2023-01-11T04:32:08.617Z,51.50
2023-01-11T04:35:10.608Z,51.50
2023-01-11T04:38:12.798Z,51.42
2023-01-11T04:41:33.462Z,51.12
2023-01-11T04:44:35.483Z,50.87
2023-01-11T04:47:37.449Z,50.79
2023-01-11T04:50:39.475Z,50.82
2023-01-11T04:53:41.553Z,50.94
2023-01-11T04:56:43.629Z,50.99
2023-01-11T04:59:48.652Z,51.04
2023-01-11T05:02:50.702Z,51.08
2023-01-11T05:06:00.181Z,51.21
2023-01-11T05:09:02.263Z,51.11
2023-01-11T05:12:04.414Z,51.06
2023-01-11T05:15:07.200Z,51.08
2023-01-11T05:18:09.176Z,51.11
2023-01-11T05:21:13.588Z,51.21
2023-01-11T05:24:16.942Z,51.15
2023-01-11T05:27:18.950Z,51.03
2023-01-11T05:30:21.007Z,50.98
2023-01-11T05:33:22.983Z,51.05
2023-01-11T05:36:26.962Z,51.11
2023-01-11T05:39:29.035Z,51.11
2023-01-11T05:42:31.066Z,51.08
2023-01-11T05:45:33.463Z,50.91
2023-01-11T05:48:35.495Z,50.82
2023-01-11T05:51:38.250Z,50.89
2023-01-11T05:54:40.268Z,50.92
2023-01-11T05:57:43.501Z,50.98
2023-01-11T06:00:49.001Z,50.88
2023-01-11T06:03:51.868Z,50.80
2023-01-11T06:06:54.016Z,50.72
2023-01-11T06:09:56.050Z,50.72
2023-01-11T06:13:33.547Z,50.85
2023-01-11T06:16:35.655Z,50.89
2023-01-11T06:19:37.850Z,50.82
2023-01-11T06:22:39.844Z,50.76
2023-01-11T06:25:43.073Z,50.69
2023-01-11T06:28:46.432Z,50.79
2023-01-11T06:31:48.503Z,50.80
2023-01-11T06:34:50.464Z,50.83
2023-01-11T06:37:52.457Z,50.72
2023-01-11T06:40:56.956Z,50.69
2023-01-11T06:43:58.943Z,50.72
2023-01-11T06:47:00.969Z,50.76
2023-01-11T06:50:03.218Z,50.80
2023-01-11T06:53:05.283Z,50.63
2023-01-11T06:56:08.210Z,50.26
2023-01-11T06:59:10.288Z,49.81
2023-01-11T07:02:12.652Z,49.63
2023-01-11T07:05:18.109Z,49.70
2023-01-11T07:08:20.943Z,50.14
2023-01-11T07:11:22.977Z,50.63
2023-01-11T07:14:25.032Z,50.88
2023-01-11T07:17:27.033Z,51.07
2023-01-11T07:20:29.922Z,50.98
2023-01-11T07:23:32.069Z,50.73
2023-01-11T07:26:35.558Z,50.59
2023-01-11T07:29:37.542Z,50.62
2023-01-11T07:32:39.662Z,50.47
2023-01-11T07:35:41.795Z,50.52
2023-01-11T07:38:43.867Z,50.39
2023-01-11T07:42:04.870Z,50.63
2023-01-11T07:45:07.612Z,50.09
2023-01-11T07:48:10.683Z,50.02
2023-01-11T07:51:13.376Z,49.92
2023-01-11T07:54:15.534Z,49.99
2023-01-11T07:57:18.461Z,49.91
2023-01-11T08:00:20.981Z,49.75
2023-01-11T08:03:23.035Z,49.55
2023-01-11T08:06:25.090Z,49.40
2023-01-11T08:09:27.078Z,49.40
2023-01-11T08:12:49.438Z,49.43
2023-01-11T08:15:52.696Z,49.50
2023-01-11T08:18:54.742Z,49.56
2023-01-11T08:21:56.814Z,49.60
2023-01-11T08:24:58.824Z,49.60
2023-01-11T08:28:05.660Z,49.50
2023-01-11T08:31:08.776Z,49.41
2023-01-11T08:34:10.789Z,49.75
2023-01-11T08:37:12.885Z,49.94
2023-01-11T08:40:15.120Z,49.98
2023-01-11T08:43:17.092Z,50.24
2023-01-11T08:46:19.570Z,50.30
2023-01-11T08:49:21.627Z,50.62
2023-01-11T08:52:23.693Z,50.98
2023-01-11T08:55:25.704Z,50.93
2023-01-11T08:58:27.700Z,50.81
2023-01-11T09:01:30.266Z,50.50
2023-01-11T09:04:33.906Z,50.11
2023-01-11T09:07:35.981Z,50.05
2023-01-11T09:10:38.523Z,50.00
2023-01-11T09:13:40.528Z,49.96
2023-01-11T09:16:42.678Z,50.21
2023-01-11T09:19:44.756Z,49.89
2023-01-11T09:22:47.627Z,49.38
2023-01-11T09:25:49.692Z,49.12
2023-01-11T09:28:51.880Z,48.86
2023-01-11T09:31:53.981Z,48.74
2023-01-11T09:34:57.988Z,48.54
2023-01-11T09:38:01.732Z,48.56
2023-01-11T09:41:14.034Z,49.02
2023-01-11T09:44:23.150Z,48.86
2023-01-11T09:47:31.047Z,48.38
2023-01-11T09:50:40.099Z,47.63
2023-01-11T09:53:49.361Z,47.12
2023-01-11T09:57:06.835Z,47.08
2023-01-11T10:00:29.052Z,47.00
2023-01-11T10:04:11.859Z,47.03
2023-01-11T10:07:40.056Z,47.20
2023-01-11T10:18:32.630Z,47.48
2023-01-11T10:18:40.054Z,47.52
2023-01-11T10:21:44.065Z,47.80
2023-01-11T10:24:56.382Z,47.85
2023-01-11T10:28:02.140Z,47.90
2023-01-11T10:31:30.226Z,47.94
2023-01-11T10:35:02.166Z,48.07
2023-01-11T10:38:30.761Z,48.15
2023-01-11T10:42:04.787Z,48.28
2023-01-11T10:45:18.025Z,48.42
2023-01-11T10:48:35.617Z,48.58
2023-01-11T10:51:41.141Z,48.73
2023-01-11T10:54:47.373Z,48.84
2023-01-11T10:58:08.476Z,48.91
2023-01-11T11:01:41.382Z,49.01
2023-01-11T11:05:21.429Z,49.14
2023-01-11T11:08:35.455Z,49.20
2023-01-11T11:11:58.864Z,49.32
2023-01-11T11:16:24.263Z,49.40
2023-01-11T11:19:34.927Z,49.47
2023-01-11T11:23:03.946Z,49.53
2023-01-11T11:27:19.776Z,49.58
2023-01-11T11:35:57.157Z,49.87
2023-01-11T11:47:45.377Z,50.40
2023-01-11T11:50:49.703Z,51.11
2023-01-11T11:53:56.267Z,51.66
2023-01-11T11:57:11.253Z,51.61
2023-01-11T12:00:39.911Z,51.89
2023-01-11T12:03:43.597Z,51.99
2023-01-11T12:06:51.745Z,52.02
2023-01-11T12:10:05.191Z,52.09
2023-01-11T12:13:28.070Z,52.07
2023-01-11T12:16:33.780Z,52.55
2023-01-11T12:19:42.171Z,52.49
2023-01-11T12:22:44.697Z,52.46
2023-01-11T12:25:55.236Z,52.49
2023-01-11T12:29:05.220Z,52.53
2023-01-11T12:32:28.289Z,52.69
2023-01-11T12:35:54.259Z,52.99
2023-01-11T12:39:20.519Z,53.28
2023-01-11T12:42:52.414Z,53.65
2023-01-11T12:46:16.761Z,54.35
2023-01-11T12:49:56.096Z,54.11
2023-01-11T12:53:14.796Z,53.83
2023-01-11T12:56:34.385Z,53.67
2023-01-11T13:00:01.403Z,53.57
2023-01-11T13:03:29.507Z,53.50
2023-01-11T13:06:46.295Z,53.42
2023-01-11T13:10:18.355Z,53.35
2023-01-11T13:13:41.594Z,53.28
2023-01-11T13:17:17.573Z,53.26
2023-01-11T13:20:59.450Z,53.20
2023-01-11T13:24:16.160Z,53.18
2023-01-11T13:27:24.112Z,53.20
2023-01-11T13:30:26.716Z,53.14
2023-01-11T13:33:32.555Z,53.20
2023-01-11T13:36:42.695Z,53.25
2023-01-11T13:40:03.821Z,53.26
2023-01-11T13:43:36.747Z,53.52
2023-01-11T13:46:45.810Z,53.75
2023-01-11T13:49:59.995Z,53.95
2023-01-11T13:53:34.053Z,54.02
2023-01-11T13:56:41.136Z,54.37
2023-01-11T13:59:52.899Z,54.58
2023-01-11T14:03:15.802Z,55.39
2023-01-11T14:06:44.185Z,55.30
2023-01-11T14:10:01.334Z,55.08
2023-01-11T14:13:11.771Z,54.77
2023-01-11T14:16:56.249Z,54.69
2023-01-11T14:20:29.213Z,54.49
2023-01-11T14:23:51.613Z,54.44
2023-01-11T14:27:30.717Z,54.31
2023-01-11T14:30:52.261Z,54.24
2023-01-11T14:34:17.223Z,54.16
2023-01-11T14:37:33.470Z,54.09
2023-01-11T14:40:56.412Z,54.01
2023-01-11T14:44:15.952Z,53.97
2023-01-11T14:47:43.013Z,53.88
2023-01-11T14:51:13.656Z,53.81
2023-01-11T14:54:21.254Z,53.78
2023-01-11T14:57:44.356Z,53.71
2023-01-11T15:00:46.384Z,53.67
2023-01-11T15:03:49.328Z,53.62
2023-01-11T15:06:55.813Z,53.57
2023-01-11T15:10:04.554Z,53.56
2023-01-11T15:13:11.022Z,53.56
2023-01-11T15:16:44.278Z,53.51
2023-01-11T15:19:48.912Z,53.46
2023-01-11T15:23:05.633Z,53.41
2023-01-11T15:26:09.464Z,53.44
2023-01-11T15:29:22.436Z,53.40
2023-01-11T15:32:35.170Z,53.36
2023-01-11T15:35:37.243Z,53.33
2023-01-11T15:39:05.109Z,53.34
2023-01-11T15:42:16.257Z,53.28
2023-01-11T15:46:01.966Z,53.21
2023-01-11T15:49:33.201Z,53.18
2023-01-11T15:53:09.719Z,53.16
2023-01-11T15:56:30.223Z,53.22
2023-01-11T16:00:06.471Z,53.28
2023-01-11T16:03:49.631Z,53.33
2023-01-11T16:06:58.974Z,53.39
2023-01-11T16:10:10.182Z,53.49
2023-01-11T16:13:15.201Z,53.49
2023-01-11T16:16:17.319Z,53.54
2023-01-11T16:19:41.189Z,53.52
2023-01-11T16:22:51.417Z,53.46
2023-01-11T16:25:57.248Z,53.33
2023-01-11T16:28:59.448Z,53.26
2023-01-11T16:32:07.885Z,53.16
2023-01-11T16:35:21.189Z,53.27
2023-01-11T16:38:24.110Z,53.26
2023-01-11T16:41:33.325Z,53.22
2023-01-11T16:44:50.111Z,53.37
2023-01-11T16:48:13.853Z,53.52
2023-01-11T16:51:20.095Z,53.65
2023-01-11T16:54:27.588Z,53.62
2023-01-11T16:57:39.341Z,53.68
2023-01-11T17:00:41.690Z,53.69
2023-01-11T17:03:52.908Z,53.67
2023-01-11T17:06:55.473Z,53.72
2023-01-11T17:10:20.564Z,53.52
2023-01-11T17:13:54.653Z,53.52
2023-01-11T17:17:06.909Z,53.65
2023-01-11T17:20:35.453Z,53.68
2023-01-11T17:23:39.329Z,53.68
2023-01-11T17:26:48.519Z,53.65
2023-01-11T17:29:53.581Z,53.60
2023-01-11T17:32:59.447Z,53.68
2023-01-11T17:36:02.645Z,53.68
2023-01-11T17:39:06.284Z,53.68
2023-01-11T17:42:30.079Z,53.65
2023-01-11T17:45:32.356Z,53.52
2023-01-11T17:48:34.772Z,53.46
2023-01-11T17:51:39.560Z,53.36
2023-01-11T17:54:41.799Z,53.32
2023-01-11T17:57:44.569Z,53.29
2023-01-11T18:01:05.301Z,53.27
2023-01-11T18:04:19.217Z,53.24
2023-01-11T18:07:21.464Z,53.20
2023-01-11T18:10:28.948Z,53.18
2023-01-11T18:13:34.976Z,53.17
2023-01-11T18:16:47.059Z,53.13
2023-01-11T18:19:49.140Z,53.12
2023-01-11T18:22:54.126Z,53.07
2023-01-11T18:26:26.260Z,53.08
2023-01-11T18:29:37.411Z,53.01
2023-01-11T18:32:43.582Z,52.96
2023-01-11T18:35:48.447Z,52.91
2023-01-11T18:38:50.459Z,52.88
2023-01-11T18:42:08.128Z,52.86
2023-01-11T18:45:11.744Z,52.83
2023-01-11T18:48:14.894Z,52.80
2023-01-11T18:51:23.580Z,52.79
2023-01-11T18:54:25.573Z,52.73
2023-01-11T18:57:27.592Z,52.69
2023-01-11T19:00:29.675Z,52.72
2023-01-11T19:03:31.813Z,52.69
2023-01-11T19:06:34.056Z,52.67
2023-01-11T19:09:36.156Z,52.61
2023-01-11T19:12:38.244Z,52.60
2023-01-11T19:15:40.326Z,52.59
2023-01-11T19:18:42.349Z,52.58
2023-01-11T19:21:44.501Z,52.34
2023-01-11T19:24:46.601Z,52.30
2023-01-11T19:27:49.688Z,52.29
2023-01-11T19:30:51.868Z,52.32
2023-01-11T19:33:53.945Z,52.33
2023-01-11T19:36:56.007Z,52.28
2023-01-11T19:39:58.060Z,52.28
2023-01-11T19:43:00.126Z,52.26
2023-01-11T19:46:03.781Z,52.28
2023-01-11T19:49:06.198Z,52.27
2023-01-11T19:52:13.169Z,52.27
2023-01-11T19:55:15.731Z,52.27
2023-01-11T19:58:17.707Z,52.24
2023-01-11T20:01:19.744Z,52.27
2023-01-11T20:04:21.744Z,52.26
2023-01-11T20:07:23.847Z,52.25
2023-01-11T20:10:26.253Z,52.22
2023-01-11T20:13:28.488Z,52.19
2023-01-11T20:16:30.571Z,52.21
2023-01-11T20:19:32.616Z,52.21
2023-01-11T20:22:34.699Z,52.23
2023-01-11T20:25:36.695Z,52.20
2023-01-11T20:28:38.763Z,52.19
2023-01-11T20:31:40.883Z,52.20
2023-01-11T20:34:42.916Z,52.22
2023-01-11T20:37:44.942Z,52.20
2023-01-11T20:40:46.999Z,52.20
2023-01-11T20:43:48.996Z,52.23
2023-01-11T20:46:52.332Z,52.21
2023-01-11T20:49:54.316Z,52.20
2023-01-11T20:52:59.275Z,52.19
2023-01-11T20:56:05.359Z,52.20
2023-01-11T20:59:08.955Z,52.20
2023-01-11T21:02:13.477Z,52.22
2023-01-11T21:05:15.817Z,52.20
2023-01-11T21:08:17.912Z,52.18
2023-01-11T21:11:19.904Z,52.18
2023-01-11T21:14:23.084Z,52.18
2023-01-11T21:17:25.212Z,52.20
2023-01-11T21:20:27.254Z,52.22
2023-01-11T21:23:29.313Z,52.18
2023-01-11T21:26:32.147Z,52.21
2023-01-11T21:29:34.627Z,52.20
2023-01-11T21:32:36.646Z,52.20
2023-01-11T21:35:38.702Z,52.20
2023-01-11T21:38:40.998Z,52.22
2023-01-11T21:41:55.736Z,52.20
2023-01-11T21:44:57.816Z,52.22
2023-01-11T21:47:59.965Z,52.24
2023-01-11T21:51:02.886Z,52.27
2023-01-11T21:54:07.298Z,52.24
2023-01-11T21:57:09.379Z,52.24
2023-01-11T22:00:14.545Z,52.18
2023-01-11T22:03:16.649Z,52.17
2023-01-11T22:06:19.069Z,52.14
2023-01-11T22:09:22.259Z,52.17
2023-01-11T22:12:24.307Z,52.18
2023-01-11T22:15:26.356Z,52.16
2023-01-11T22:18:29.164Z,52.14
2023-01-11T22:21:31.173Z,52.17
2023-01-11T22:24:33.261Z,52.18
2023-01-11T22:27:35.356Z,52.21
2023-01-11T22:30:37.407Z,52.24
2023-01-11T22:33:39.561Z,52.20
2023-01-11T22:36:42.741Z,52.21
2023-01-11T22:39:44.760Z,52.20
2023-01-11T22:42:46.821Z,52.23
2023-01-11T22:45:59.998Z,52.24
2023-01-11T22:49:02.409Z,52.26
2023-01-11T22:52:06.694Z,52.24
2023-01-11T22:55:12.373Z,52.24
2023-01-11T22:58:14.495Z,52.26
2023-01-11T23:01:28.257Z,52.29
2023-01-11T23:04:30.528Z,52.28
2023-01-11T23:07:32.647Z,52.27
2023-01-11T23:10:34.677Z,52.24
2023-01-11T23:13:58.729Z,52.24
2023-01-11T23:17:09.179Z,52.21
2023-01-11T23:20:11.839Z,52.24
2023-01-11T23:23:14.008Z,52.22
2023-01-11T23:26:20.316Z,52.18
2023-01-11T23:29:22.628Z,52.20
2023-01-11T23:32:24.595Z,52.20
2023-01-11T23:35:26.597Z,52.20
2023-01-11T23:38:32.610Z,52.20
2023-01-11T23:41:53.543Z,52.18
2023-01-11T23:44:56.461Z,52.21
2023-01-11T23:47:58.459Z,52.17
2023-01-11T23:51:04.291Z,52.17
2023-01-11T23:54:07.055Z,52.20
2023-01-11T23:57:12.187Z,52.19
